sensor_id;sensor_type;location;lat;lon;timestamp;temperature;humidity
14473;DHT22;7322;50.872;4.386;2023-07-22T00:00:07;24.10;99.50
14473;DHT22;7322;50.872;4.386;2023-07-22T00:02:38;24.10;99.30
14473;DHT22;7322;50.872;4.386;2023-07-22T00:05:06;24.10;99.50
14473;DHT22;7322;50.872;4.386;2023-07-22T00:07:35;24.20;99.60
14473;DHT22;7322;50.872;4.386;2023-07-22T00:10:02;24.30;99.50
14473;DHT22;7322;50.872;4.386;2023-07-22T00:12:29;24.20;99.00
14473;DHT22;7322;50.872;4.386;2023-07-22T00:14:56;24.30;99.50
14473;DHT22;7322;50.872;4.386;2023-07-22T00:17:23;24.20;98.70
14473;DHT22;7322;50.872;4.386;2023-07-22T00:19:50;24.30;99.50
14473;DHT22;7322;50.872;4.386;2023-07-22T00:22:17;24.40;99.40
14473;DHT22;7322;50.872;4.386;2023-07-22T00:24:47;24.30;99.30
14473;DHT22;7322;50.872;4.386;2023-07-22T00:27:14;24.40;99.50
14473;DHT22;7322;50.872;4.386;2023-07-22T00:29:42;24.40;99.40
14473;DHT22;7322;50.872;4.386;2023-07-22T00:32:09;24.30;99.20
14473;DHT22;7322;50.872;4.386;2023-07-22T00:34:36;24.30;99.50
14473;DHT22;7322;50.872;4.386;2023-07-22T00:37:06;24.10;99.40
14473;DHT22;7322;50.872;4.386;2023-07-22T00:39:33;24.20;99.60
14473;DHT22;7322;50.872;4.386;2023-07-22T00:42:02;24.20;99.40
14473;DHT22;7322;50.872;4.386;2023-07-22T00:44:30;24.20;99.50
14473;DHT22;7322;50.872;4.386;2023-07-22T00:46:58;24.10;99.20
14473;DHT22;7322;50.872;4.386;2023-07-22T00:49:26;24.10;99.70
14473;DHT22;7322;50.872;4.386;2023-07-22T00:51:55;24.00;99.60
14473;DHT22;7322;50.872;4.386;2023-07-22T00:54:23;24.00;99.70
14473;DHT22;7322;50.872;4.386;2023-07-22T00:56:51;24.00;99.70
14473;DHT22;7322;50.872;4.386;2023-07-22T00:59:21;24.00;99.70
14473;DHT22;7322;50.872;4.386;2023-07-22T01:01:48;24.00;99.70
14473;DHT22;7322;50.872;4.386;2023-07-22T01:04:16;24.00;99.90
14473;DHT22;7322;50.872;4.386;2023-07-22T01:06:46;24.00;99.70
14473;DHT22;7322;50.872;4.386;2023-07-22T01:09:14;23.80;99.70
14473;DHT22;7322;50.872;4.386;2023-07-22T01:11:41;23.80;99.90
14473;DHT22;7322;50.872;4.386;2023-07-22T01:14:09;23.80;99.90
14473;DHT22;7322;50.872;4.386;2023-07-22T01:16:37;23.80;99.80
14473;DHT22;7322;50.872;4.386;2023-07-22T01:19:05;24.00;99.90
14473;DHT22;7322;50.872;4.386;2023-07-22T01:21:34;24.00;99.70
14473;DHT22;7322;50.872;4.386;2023-07-22T01:24:03;24.00;99.90
14473;DHT22;7322;50.872;4.386;2023-07-22T01:26:30;24.00;99.90
14473;DHT22;7322;50.872;4.386;2023-07-22T01:29:04;24.00;99.80
14473;DHT22;7322;50.872;4.386;2023-07-22T01:31:33;24.10;99.90
14473;DHT22;7322;50.872;4.386;2023-07-22T01:34:01;24.00;99.80
14473;DHT22;7322;50.872;4.386;2023-07-22T01:36:29;23.90;99.90
14473;DHT22;7322;50.872;4.386;2023-07-22T01:38:56;23.80;99.60
14473;DHT22;7322;50.872;4.386;2023-07-22T01:41:25;23.70;99.90
14473;DHT22;7322;50.872;4.386;2023-07-22T01:43:53;23.60;99.90
14473;DHT22;7322;50.872;4.386;2023-07-22T01:46:20;23.60;99.90
14473;DHT22;7322;50.872;4.386;2023-07-22T01:48:47;23.60;99.90
14473;DHT22;7322;50.872;4.386;2023-07-22T01:51:14;23.60;99.90
14473;DHT22;7322;50.872;4.386;2023-07-22T01:53:41;23.60;99.90
14473;DHT22;7322;50.872;4.386;2023-07-22T01:56:08;23.80;99.90
14473;DHT22;7322;50.872;4.386;2023-07-22T01:58:37;23.70;99.90
14473;DHT22;7322;50.872;4.386;2023-07-22T02:01:04;23.80;99.90
14473;DHT22;7322;50.872;4.386;2023-07-22T02:03:33;23.70;99.90
14473;DHT22;7322;50.872;4.386;2023-07-22T02:06:03;23.80;99.90
14473;DHT22;7322;50.872;4.386;2023-07-22T02:08:30;23.80;99.90
14473;DHT22;7322;50.872;4.386;2023-07-22T02:11:01;23.80;99.90
14473;DHT22;7322;50.872;4.386;2023-07-22T02:13:29;23.80;99.90
14473;DHT22;7322;50.872;4.386;2023-07-22T02:15:58;23.90;99.90
14473;DHT22;7322;50.872;4.386;2023-07-22T02:18:25;23.80;99.90
14473;DHT22;7322;50.872;4.386;2023-07-22T02:20:53;23.80;99.90
14473;DHT22;7322;50.872;4.386;2023-07-22T02:23:20;23.80;99.90
14473;DHT22;7322;50.872;4.386;2023-07-22T02:25:49;23.80;99.90
14473;DHT22;7322;50.872;4.386;2023-07-22T02:28:16;23.70;99.90
14473;DHT22;7322;50.872;4.386;2023-07-22T02:30:46;23.60;99.90
14473;DHT22;7322;50.872;4.386;2023-07-22T02:33:16;23.60;99.90
14473;DHT22;7322;50.872;4.386;2023-07-22T02:35:43;23.50;99.90
14473;DHT22;7322;50.872;4.386;2023-07-22T02:38:11;23.60;99.90
14473;DHT22;7322;50.872;4.386;2023-07-22T02:40:40;23.60;99.90
14473;DHT22;7322;50.872;4.386;2023-07-22T02:43:08;23.60;99.90
14473;DHT22;7322;50.872;4.386;2023-07-22T02:45:36;23.60;99.90
14473;DHT22;7322;50.872;4.386;2023-07-22T02:48:04;23.60;99.90
14473;DHT22;7322;50.872;4.386;2023-07-22T02:50:33;23.60;99.90
14473;DHT22;7322;50.872;4.386;2023-07-22T02:53:00;23.50;99.90
14473;DHT22;7322;50.872;4.386;2023-07-22T02:55:27;23.60;99.90
14473;DHT22;7322;50.872;4.386;2023-07-22T02:57:55;23.70;99.90
14473;DHT22;7322;50.872;4.386;2023-07-22T03:00:22;23.60;99.90
14473;DHT22;7322;50.872;4.386;2023-07-22T03:02:50;23.60;99.90
14473;DHT22;7322;50.872;4.386;2023-07-22T03:05:18;23.70;99.90
14473;DHT22;7322;50.872;4.386;2023-07-22T03:07:47;23.60;99.90
14473;DHT22;7322;50.872;4.386;2023-07-22T03:10:14;23.60;99.90
14473;DHT22;7322;50.872;4.386;2023-07-22T03:12:41;23.70;99.90
14473;DHT22;7322;50.872;4.386;2023-07-22T03:15:08;23.80;99.90
14473;DHT22;7322;50.872;4.386;2023-07-22T03:17:35;23.80;99.90
14473;DHT22;7322;50.872;4.386;2023-07-22T03:20:04;23.90;99.90
14473;DHT22;7322;50.872;4.386;2023-07-22T03:22:34;23.80;99.90
14473;DHT22;7322;50.872;4.386;2023-07-22T03:25:03;23.80;99.90
14473;DHT22;7322;50.872;4.386;2023-07-22T03:27:33;23.60;99.90
14473;DHT22;7322;50.872;4.386;2023-07-22T03:30:01;23.50;99.90
14473;DHT22;7322;50.872;4.386;2023-07-22T03:32:28;23.60;99.90
14473;DHT22;7322;50.872;4.386;2023-07-22T03:34:55;23.70;99.90
14473;DHT22;7322;50.872;4.386;2023-07-22T03:37:22;23.80;99.90
14473;DHT22;7322;50.872;4.386;2023-07-22T03:39:49;23.70;99.90
14473;DHT22;7322;50.872;4.386;2023-07-22T03:42:18;23.80;99.90
14473;DHT22;7322;50.872;4.386;2023-07-22T03:44:46;23.90;99.90
14473;DHT22;7322;50.872;4.386;2023-07-22T03:47:13;23.90;99.90
14473;DHT22;7322;50.872;4.386;2023-07-22T03:49:40;24.00;99.90
14473;DHT22;7322;50.872;4.386;2023-07-22T03:52:07;23.90;99.90
14473;DHT22;7322;50.872;4.386;2023-07-22T03:54:34;23.90;99.90
14473;DHT22;7322;50.872;4.386;2023-07-22T03:57:01;24.00;99.90
14473;DHT22;7322;50.872;4.386;2023-07-22T03:59:30;23.90;99.90
14473;DHT22;7322;50.872;4.386;2023-07-22T04:01:57;23.80;99.90
14473;DHT22;7322;50.872;4.386;2023-07-22T04:04:24;23.90;99.90
14473;DHT22;7322;50.872;4.386;2023-07-22T04:06:51;23.70;99.90
14473;DHT22;7322;50.872;4.386;2023-07-22T04:09:18;23.60;99.90
14473;DHT22;7322;50.872;4.386;2023-07-22T04:11:45;23.60;99.90
14473;DHT22;7322;50.872;4.386;2023-07-22T04:14:12;23.60;99.90
14473;DHT22;7322;50.872;4.386;2023-07-22T04:16:41;23.50;99.90
14473;DHT22;7322;50.872;4.386;2023-07-22T04:19:08;23.50;99.90
14473;DHT22;7322;50.872;4.386;2023-07-22T04:21:35;23.50;99.90
14473;DHT22;7322;50.872;4.386;2023-07-22T04:24:02;23.60;99.90
14473;DHT22;7322;50.872;4.386;2023-07-22T04:26:29;23.60;99.90
14473;DHT22;7322;50.872;4.386;2023-07-22T04:28:57;23.70;99.90
14473;DHT22;7322;50.872;4.386;2023-07-22T04:31:24;23.80;99.90
14473;DHT22;7322;50.872;4.386;2023-07-22T04:33:52;23.80;99.90
14473;DHT22;7322;50.872;4.386;2023-07-22T04:36:19;23.90;99.90
14473;DHT22;7322;50.872;4.386;2023-07-22T04:38:46;24.00;99.90
14473;DHT22;7322;50.872;4.386;2023-07-22T04:41:13;23.90;99.90
14473;DHT22;7322;50.872;4.386;2023-07-22T04:43:41;23.80;99.90
14473;DHT22;7322;50.872;4.386;2023-07-22T04:46:09;23.90;99.90
14473;DHT22;7322;50.872;4.386;2023-07-22T04:48:36;24.00;99.90
14473;DHT22;7322;50.872;4.386;2023-07-22T04:51:05;24.00;99.90
14473;DHT22;7322;50.872;4.386;2023-07-22T04:53:32;24.00;99.90
14473;DHT22;7322;50.872;4.386;2023-07-22T04:55:58;24.00;99.90
14473;DHT22;7322;50.872;4.386;2023-07-22T04:58:25;24.10;99.90
14473;DHT22;7322;50.872;4.386;2023-07-22T05:00:52;24.20;99.90
14473;DHT22;7322;50.872;4.386;2023-07-22T05:03:19;24.20;99.90
14473;DHT22;7322;50.872;4.386;2023-07-22T05:05:46;24.30;99.90
14473;DHT22;7322;50.872;4.386;2023-07-22T05:08:14;24.10;99.90
14473;DHT22;7322;50.872;4.386;2023-07-22T05:10:41;24.10;99.90
14473;DHT22;7322;50.872;4.386;2023-07-22T05:13:08;24.00;99.90
14473;DHT22;7322;50.872;4.386;2023-07-22T05:15:36;23.90;99.90
14473;DHT22;7322;50.872;4.386;2023-07-22T05:18:03;23.80;99.90
14473;DHT22;7322;50.872;4.386;2023-07-22T05:20:30;23.90;99.90
14473;DHT22;7322;50.872;4.386;2023-07-22T05:22:57;23.90;99.90
14473;DHT22;7322;50.872;4.386;2023-07-22T05:25:26;23.90;99.90
14473;DHT22;7322;50.872;4.386;2023-07-22T05:27:53;24.00;99.90
14473;DHT22;7322;50.872;4.386;2023-07-22T05:30:20;24.00;99.90
14473;DHT22;7322;50.872;4.386;2023-07-22T05:32:47;24.00;99.90
14473;DHT22;7322;50.872;4.386;2023-07-22T05:35:14;23.90;99.90
14473;DHT22;7322;50.872;4.386;2023-07-22T05:37:41;23.90;99.90
14473;DHT22;7322;50.872;4.386;2023-07-22T05:40:09;23.90;99.90
14473;DHT22;7322;50.872;4.386;2023-07-22T05:42:38;24.00;99.90
14473;DHT22;7322;50.872;4.386;2023-07-22T05:45:05;24.10;99.90
14473;DHT22;7322;50.872;4.386;2023-07-22T05:47:34;24.10;99.90
14473;DHT22;7322;50.872;4.386;2023-07-22T05:50:01;24.20;99.90
14473;DHT22;7322;50.872;4.386;2023-07-22T05:52:29;24.10;99.90
14473;DHT22;7322;50.872;4.386;2023-07-22T05:54:57;24.10;99.90
14473;DHT22;7322;50.872;4.386;2023-07-22T05:57:24;24.10;99.90
14473;DHT22;7322;50.872;4.386;2023-07-22T05:59:53;24.00;99.90
14473;DHT22;7322;50.872;4.386;2023-07-22T06:02:20;24.00;99.90
14473;DHT22;7322;50.872;4.386;2023-07-22T06:04:47;24.00;99.90
14473;DHT22;7322;50.872;4.386;2023-07-22T06:07:14;24.10;99.90
14473;DHT22;7322;50.872;4.386;2023-07-22T06:09:42;24.10;99.90
14473;DHT22;7322;50.872;4.386;2023-07-22T06:12:10;24.20;99.90
14473;DHT22;7322;50.872;4.386;2023-07-22T06:14:37;24.40;99.90
14473;DHT22;7322;50.872;4.386;2023-07-22T06:17:05;24.50;99.90
14473;DHT22;7322;50.872;4.386;2023-07-22T06:19:33;24.60;99.90
14473;DHT22;7322;50.872;4.386;2023-07-22T06:22:00;24.70;99.90
14473;DHT22;7322;50.872;4.386;2023-07-22T06:24:27;24.80;99.90
14473;DHT22;7322;50.872;4.386;2023-07-22T06:26:54;24.90;99.90
14473;DHT22;7322;50.872;4.386;2023-07-22T06:29:21;24.90;99.90
14473;DHT22;7322;50.872;4.386;2023-07-22T06:31:48;25.00;99.90
14473;DHT22;7322;50.872;4.386;2023-07-22T06:34:16;25.00;99.90
14473;DHT22;7322;50.872;4.386;2023-07-22T06:36:44;25.00;99.90
14473;DHT22;7322;50.872;4.386;2023-07-22T06:39:11;25.00;99.90
14473;DHT22;7322;50.872;4.386;2023-07-22T06:41:38;25.10;99.90
14473;DHT22;7322;50.872;4.386;2023-07-22T06:44:05;25.10;99.90
14473;DHT22;7322;50.872;4.386;2023-07-22T06:46:34;25.10;99.90
14473;DHT22;7322;50.872;4.386;2023-07-22T06:49:02;25.10;99.90
14473;DHT22;7322;50.872;4.386;2023-07-22T06:51:42;25.20;99.90
14473;DHT22;7322;50.872;4.386;2023-07-22T06:54:13;25.20;99.90
14473;DHT22;7322;50.872;4.386;2023-07-22T06:56:42;25.20;99.90
14473;DHT22;7322;50.872;4.386;2023-07-22T06:59:18;25.20;99.90
14473;DHT22;7322;50.872;4.386;2023-07-22T07:01:47;25.30;99.90
14473;DHT22;7322;50.872;4.386;2023-07-22T07:04:16;25.30;99.90
14473;DHT22;7322;50.872;4.386;2023-07-22T07:06:56;25.20;99.90
14473;DHT22;7322;50.872;4.386;2023-07-22T07:09:42;25.10;99.90
14473;DHT22;7322;50.872;4.386;2023-07-22T07:12:09;24.80;99.90
14473;DHT22;7322;50.872;4.386;2023-07-22T07:14:42;24.60;99.90
14473;DHT22;7322;50.872;4.386;2023-07-22T07:17:12;24.40;99.90
14473;DHT22;7322;50.872;4.386;2023-07-22T07:19:41;24.20;99.90
14473;DHT22;7322;50.872;4.386;2023-07-22T07:22:11;24.00;99.90
14473;DHT22;7322;50.872;4.386;2023-07-22T07:24:40;23.90;99.90
14473;DHT22;7322;50.872;4.386;2023-07-22T07:27:09;23.70;99.90
14473;DHT22;7322;50.872;4.386;2023-07-22T07:29:42;23.70;99.90
14473;DHT22;7322;50.872;4.386;2023-07-22T07:32:10;23.70;99.90
14473;DHT22;7322;50.872;4.386;2023-07-22T07:34:44;23.70;99.90
14473;DHT22;7322;50.872;4.386;2023-07-22T07:37:13;23.70;99.90
14473;DHT22;7322;50.872;4.386;2023-07-22T07:39:40;23.70;99.90
14473;DHT22;7322;50.872;4.386;2023-07-22T07:42:07;23.70;99.90
14473;DHT22;7322;50.872;4.386;2023-07-22T07:44:34;23.80;99.90
14473;DHT22;7322;50.872;4.386;2023-07-22T07:47:01;23.80;99.90
14473;DHT22;7322;50.872;4.386;2023-07-22T07:49:28;23.90;99.90
14473;DHT22;7322;50.872;4.386;2023-07-22T07:52:14;23.80;99.90
14473;DHT22;7322;50.872;4.386;2023-07-22T07:54:41;23.80;99.90
14473;DHT22;7322;50.872;4.386;2023-07-22T07:57:08;23.80;99.90
14473;DHT22;7322;50.872;4.386;2023-07-22T07:59:35;23.80;99.90
14473;DHT22;7322;50.872;4.386;2023-07-22T08:02:02;23.80;99.90
14473;DHT22;7322;50.872;4.386;2023-07-22T08:04:34;23.80;99.90
14473;DHT22;7322;50.872;4.386;2023-07-22T08:07:03;23.70;99.90
14473;DHT22;7322;50.872;4.386;2023-07-22T08:09:32;23.80;99.90
14473;DHT22;7322;50.872;4.386;2023-07-22T08:11:59;24.00;99.90
14473;DHT22;7322;50.872;4.386;2023-07-22T08:14:27;23.90;99.90
14473;DHT22;7322;50.872;4.386;2023-07-22T08:16:54;23.90;99.90
14473;DHT22;7322;50.872;4.386;2023-07-22T08:19:21;23.90;99.90
14473;DHT22;7322;50.872;4.386;2023-07-22T08:21:48;24.00;99.90
14473;DHT22;7322;50.872;4.386;2023-07-22T08:24:15;24.00;99.90
14473;DHT22;7322;50.872;4.386;2023-07-22T08:26:44;24.20;99.90
14473;DHT22;7322;50.872;4.386;2023-07-22T08:29:11;24.10;99.90
14473;DHT22;7322;50.872;4.386;2023-07-22T08:31:38;24.10;99.90
14473;DHT22;7322;50.872;4.386;2023-07-22T08:34:05;24.10;99.90
14473;DHT22;7322;50.872;4.386;2023-07-22T08:36:32;24.10;99.90
14473;DHT22;7322;50.872;4.386;2023-07-22T08:38:59;24.20;99.90
14473;DHT22;7322;50.872;4.386;2023-07-22T08:41:28;24.20;99.90
14473;DHT22;7322;50.872;4.386;2023-07-22T08:43:59;24.20;99.90
14473;DHT22;7322;50.872;4.386;2023-07-22T08:46:29;24.20;99.90
14473;DHT22;7322;50.872;4.386;2023-07-22T08:48:57;24.00;99.90
14473;DHT22;7322;50.872;4.386;2023-07-22T08:51:26;24.00;99.90
14473;DHT22;7322;50.872;4.386;2023-07-22T08:53:56;24.00;99.90
14473;DHT22;7322;50.872;4.386;2023-07-22T08:56:23;24.10;99.90
14473;DHT22;7322;50.872;4.386;2023-07-22T08:58:51;24.10;99.90
14473;DHT22;7322;50.872;4.386;2023-07-22T09:01:20;24.10;99.90
14473;DHT22;7322;50.872;4.386;2023-07-22T09:03:49;24.10;99.90
14473;DHT22;7322;50.872;4.386;2023-07-22T09:06:18;24.10;99.90
14473;DHT22;7322;50.872;4.386;2023-07-22T09:08:45;24.20;99.90
14473;DHT22;7322;50.872;4.386;2023-07-22T09:11:12;24.20;99.90
14473;DHT22;7322;50.872;4.386;2023-07-22T09:13:40;24.20;99.90
14473;DHT22;7322;50.872;4.386;2023-07-22T09:16:09;24.20;99.90
14473;DHT22;7322;50.872;4.386;2023-07-22T09:18:38;24.30;99.90
14473;DHT22;7322;50.872;4.386;2023-07-22T09:21:05;24.20;99.90
14473;DHT22;7322;50.872;4.386;2023-07-22T09:23:33;24.20;99.90
14473;DHT22;7322;50.872;4.386;2023-07-22T09:26:10;24.30;99.90
14473;DHT22;7322;50.872;4.386;2023-07-22T09:28:48;24.40;99.90
14473;DHT22;7322;50.872;4.386;2023-07-22T09:31:15;24.30;99.90
14473;DHT22;7322;50.872;4.386;2023-07-22T09:33:44;24.40;99.90
14473;DHT22;7322;50.872;4.386;2023-07-22T09:36:12;24.40;99.90
14473;DHT22;7322;50.872;4.386;2023-07-22T09:38:39;24.30;99.90
14473;DHT22;7322;50.872;4.386;2023-07-22T09:41:07;24.30;99.90
14473;DHT22;7322;50.872;4.386;2023-07-22T09:43:36;24.40;99.90
14473;DHT22;7322;50.872;4.386;2023-07-22T09:46:08;24.50;99.90
14473;DHT22;7322;50.872;4.386;2023-07-22T09:48:44;24.50;99.90
14473;DHT22;7322;50.872;4.386;2023-07-22T09:51:12;24.50;99.90
14473;DHT22;7322;50.872;4.386;2023-07-22T09:53:48;24.50;99.90
14473;DHT22;7322;50.872;4.386;2023-07-22T09:56:25;24.50;99.90
14473;DHT22;7322;50.872;4.386;2023-07-22T09:58:53;24.60;99.90
14473;DHT22;7322;50.872;4.386;2023-07-22T10:01:23;24.50;99.90
14473;DHT22;7322;50.872;4.386;2023-07-22T10:03:54;24.60;99.90
14473;DHT22;7322;50.872;4.386;2023-07-22T10:06:24;24.60;99.90
14473;DHT22;7322;50.872;4.386;2023-07-22T10:08:53;24.60;99.90
14473;DHT22;7322;50.872;4.386;2023-07-22T10:11:22;24.60;99.90
14473;DHT22;7322;50.872;4.386;2023-07-22T10:13:53;24.60;99.90
14473;DHT22;7322;50.872;4.386;2023-07-22T10:16:20;24.70;99.90
14473;DHT22;7322;50.872;4.386;2023-07-22T10:18:48;24.70;99.90
14473;DHT22;7322;50.872;4.386;2023-07-22T10:21:17;24.70;99.90
14473;DHT22;7322;50.872;4.386;2023-07-22T10:23:47;24.70;99.90
14473;DHT22;7322;50.872;4.386;2023-07-22T10:26:16;24.80;99.90
14473;DHT22;7322;50.872;4.386;2023-07-22T10:28:45;24.80;99.90
14473;DHT22;7322;50.872;4.386;2023-07-22T10:31:13;24.80;99.80
14473;DHT22;7322;50.872;4.386;2023-07-22T10:33:44;24.90;99.80
14473;DHT22;7322;50.872;4.386;2023-07-22T10:36:14;24.90;99.40
14473;DHT22;7322;50.872;4.386;2023-07-22T10:38:43;24.90;99.30
14473;DHT22;7322;50.872;4.386;2023-07-22T10:41:14;25.00;99.40
14473;DHT22;7322;50.872;4.386;2023-07-22T10:43:52;24.90;99.10
14473;DHT22;7322;50.872;4.386;2023-07-22T10:46:32;24.90;99.10
14473;DHT22;7322;50.872;4.386;2023-07-22T10:49:09;25.00;99.00
14473;DHT22;7322;50.872;4.386;2023-07-22T10:51:36;25.00;99.20
14473;DHT22;7322;50.872;4.386;2023-07-22T10:54:10;25.10;98.90
14473;DHT22;7322;50.872;4.386;2023-07-22T10:56:38;25.00;98.90
14473;DHT22;7322;50.872;4.386;2023-07-22T10:59:05;25.00;98.60
14473;DHT22;7322;50.872;4.386;2023-07-22T11:01:36;25.00;98.30
14473;DHT22;7322;50.872;4.386;2023-07-22T11:04:14;25.00;98.00
14473;DHT22;7322;50.872;4.386;2023-07-22T11:06:53;25.00;97.80
14473;DHT22;7322;50.872;4.386;2023-07-22T11:09:36;25.00;98.00
14473;DHT22;7322;50.872;4.386;2023-07-22T11:12:05;25.00;98.10
14473;DHT22;7322;50.872;4.386;2023-07-22T11:14:34;25.00;98.40
14473;DHT22;7322;50.872;4.386;2023-07-22T11:17:04;25.00;98.00
14473;DHT22;7322;50.872;4.386;2023-07-22T11:19:31;25.00;97.90
14473;DHT22;7322;50.872;4.386;2023-07-22T11:21:59;25.00;98.60
14473;DHT22;7322;50.872;4.386;2023-07-22T11:24:27;25.00;98.40
14473;DHT22;7322;50.872;4.386;2023-07-22T11:26:56;25.10;98.50
14473;DHT22;7322;50.872;4.386;2023-07-22T11:29:23;25.10;98.60
14473;DHT22;7322;50.872;4.386;2023-07-22T11:31:51;25.00;98.00
14473;DHT22;7322;50.872;4.386;2023-07-22T11:34:19;25.00;98.00
14473;DHT22;7322;50.872;4.386;2023-07-22T11:36:47;25.10;97.90
14473;DHT22;7322;50.872;4.386;2023-07-22T11:39:15;25.10;98.40
14473;DHT22;7322;50.872;4.386;2023-07-22T11:41:43;25.10;98.70
14473;DHT22;7322;50.872;4.386;2023-07-22T11:44:13;25.10;98.50
14473;DHT22;7322;50.872;4.386;2023-07-22T11:46:50;25.10;98.50
14473;DHT22;7322;50.872;4.386;2023-07-22T11:49:24;25.20;98.10
14473;DHT22;7322;50.872;4.386;2023-07-22T11:51:54;25.20;98.00
14473;DHT22;7322;50.872;4.386;2023-07-22T11:54:21;25.20;98.00
14473;DHT22;7322;50.872;4.386;2023-07-22T11:56:48;25.20;97.80
14473;DHT22;7322;50.872;4.386;2023-07-22T11:59:17;25.10;98.10
14473;DHT22;7322;50.872;4.386;2023-07-22T12:01:45;25.20;97.40
14473;DHT22;7322;50.872;4.386;2023-07-22T12:04:13;25.10;97.70
14473;DHT22;7322;50.872;4.386;2023-07-22T12:06:41;25.10;97.40
14473;DHT22;7322;50.872;4.386;2023-07-22T12:09:09;25.20;97.80
14473;DHT22;7322;50.872;4.386;2023-07-22T12:11:36;25.20;97.60
14473;DHT22;7322;50.872;4.386;2023-07-22T12:14:11;25.20;97.50
14473;DHT22;7322;50.872;4.386;2023-07-22T12:16:40;25.20;97.40
14473;DHT22;7322;50.872;4.386;2023-07-22T12:19:09;25.20;97.30
14473;DHT22;7322;50.872;4.386;2023-07-22T12:21:36;25.20;97.00
14473;DHT22;7322;50.872;4.386;2023-07-22T12:24:03;25.30;97.20
14473;DHT22;7322;50.872;4.386;2023-07-22T12:26:31;25.30;97.10
14473;DHT22;7322;50.872;4.386;2023-07-22T12:28:58;25.20;96.40
14473;DHT22;7322;50.872;4.386;2023-07-22T12:31:25;25.30;97.20
14473;DHT22;7322;50.872;4.386;2023-07-22T12:33:53;25.30;97.10
14473;DHT22;7322;50.872;4.386;2023-07-22T12:36:20;25.30;97.10
14473;DHT22;7322;50.872;4.386;2023-07-22T12:38:48;25.30;96.90
14473;DHT22;7322;50.872;4.386;2023-07-22T12:41:15;25.30;96.80
14473;DHT22;7322;50.872;4.386;2023-07-22T12:43:42;25.30;96.50
14473;DHT22;7322;50.872;4.386;2023-07-22T12:46:09;25.30;96.50
14473;DHT22;7322;50.872;4.386;2023-07-22T12:48:36;25.30;96.70
14473;DHT22;7322;50.872;4.386;2023-07-22T12:51:05;25.30;96.60
14473;DHT22;7322;50.872;4.386;2023-07-22T12:53:35;25.30;96.60
14473;DHT22;7322;50.872;4.386;2023-07-22T12:56:02;25.30;96.10
14473;DHT22;7322;50.872;4.386;2023-07-22T12:58:31;25.40;96.50
14473;DHT22;7322;50.872;4.386;2023-07-22T13:00:58;25.40;96.90
14473;DHT22;7322;50.872;4.386;2023-07-22T13:03:25;25.40;97.10
14473;DHT22;7322;50.872;4.386;2023-07-22T13:05:52;25.50;97.00
14473;DHT22;7322;50.872;4.386;2023-07-22T13:08:21;25.60;96.20
14473;DHT22;7322;50.872;4.386;2023-07-22T13:10:48;25.50;95.80
14473;DHT22;7322;50.872;4.386;2023-07-22T13:13:15;25.50;96.20
14473;DHT22;7322;50.872;4.386;2023-07-22T13:15:42;25.50;96.60
14473;DHT22;7322;50.872;4.386;2023-07-22T13:18:09;25.50;96.20
14473;DHT22;7322;50.872;4.386;2023-07-22T13:20:39;25.50;95.80
14473;DHT22;7322;50.872;4.386;2023-07-22T13:23:06;25.50;95.90
14473;DHT22;7322;50.872;4.386;2023-07-22T13:25:34;25.50;96.10
14473;DHT22;7322;50.872;4.386;2023-07-22T13:28:01;25.50;96.00
14473;DHT22;7322;50.872;4.386;2023-07-22T13:30:28;25.60;96.20
14473;DHT22;7322;50.872;4.386;2023-07-22T13:32:55;25.60;96.20
14473;DHT22;7322;50.872;4.386;2023-07-22T13:35:22;25.60;95.40
14473;DHT22;7322;50.872;4.386;2023-07-22T13:37:49;25.60;95.80
14473;DHT22;7322;50.872;4.386;2023-07-22T13:40:17;25.60;96.20
14473;DHT22;7322;50.872;4.386;2023-07-22T13:42:45;25.60;96.20
14473;DHT22;7322;50.872;4.386;2023-07-22T13:45:12;25.60;96.20
14473;DHT22;7322;50.872;4.386;2023-07-22T13:47:39;25.60;96.20
14473;DHT22;7322;50.872;4.386;2023-07-22T13:50:07;25.50;95.90
14473;DHT22;7322;50.872;4.386;2023-07-22T13:52:34;25.50;96.40
14473;DHT22;7322;50.872;4.386;2023-07-22T13:55:01;25.40;96.10
14473;DHT22;7322;50.872;4.386;2023-07-22T13:57:28;25.40;96.20
14473;DHT22;7322;50.872;4.386;2023-07-22T13:59:56;25.40;96.10
14473;DHT22;7322;50.872;4.386;2023-07-22T14:02:23;25.40;96.10
14473;DHT22;7322;50.872;4.386;2023-07-22T14:04:50;25.40;96.20
14473;DHT22;7322;50.872;4.386;2023-07-22T14:07:17;25.40;96.40
14473;DHT22;7322;50.872;4.386;2023-07-22T14:09:44;25.30;96.20
14473;DHT22;7322;50.872;4.386;2023-07-22T14:12:12;25.30;96.20
14473;DHT22;7322;50.872;4.386;2023-07-22T14:14:39;25.30;96.10
14473;DHT22;7322;50.872;4.386;2023-07-22T14:17:07;25.30;96.10
14473;DHT22;7322;50.872;4.386;2023-07-22T14:19:34;25.30;96.10
14473;DHT22;7322;50.872;4.386;2023-07-22T14:22:01;25.20;96.10
14473;DHT22;7322;50.872;4.386;2023-07-22T14:24:29;25.10;96.50
14473;DHT22;7322;50.872;4.386;2023-07-22T14:26:56;25.10;96.60
14473;DHT22;7322;50.872;4.386;2023-07-22T14:29:23;25.10;96.70
14473;DHT22;7322;50.872;4.386;2023-07-22T14:31:51;25.10;97.00
14473;DHT22;7322;50.872;4.386;2023-07-22T14:34:19;25.10;97.30
14473;DHT22;7322;50.872;4.386;2023-07-22T14:36:46;25.10;97.30
14473;DHT22;7322;50.872;4.386;2023-07-22T14:39:13;25.10;97.50
14473;DHT22;7322;50.872;4.386;2023-07-22T14:41:41;25.10;97.50
14473;DHT22;7322;50.872;4.386;2023-07-22T14:44:10;25.20;97.60
14473;DHT22;7322;50.872;4.386;2023-07-22T14:46:37;25.20;97.10
14473;DHT22;7322;50.872;4.386;2023-07-22T14:49:05;25.20;97.10
14473;DHT22;7322;50.872;4.386;2023-07-22T14:51:36;25.30;97.20
14473;DHT22;7322;50.872;4.386;2023-07-22T14:54:03;25.30;97.20
14473;DHT22;7322;50.872;4.386;2023-07-22T14:56:31;25.30;97.40
14473;DHT22;7322;50.872;4.386;2023-07-22T14:58:58;25.30;97.40
14473;DHT22;7322;50.872;4.386;2023-07-22T15:01:25;25.30;97.80
14473;DHT22;7322;50.872;4.386;2023-07-22T15:03:51;25.30;97.70
14473;DHT22;7322;50.872;4.386;2023-07-22T15:06:18;25.40;97.70
14473;DHT22;7322;50.872;4.386;2023-07-22T15:08:47;25.40;97.90
14473;DHT22;7322;50.872;4.386;2023-07-22T15:11:14;25.40;97.70
14473;DHT22;7322;50.872;4.386;2023-07-22T15:13:41;25.50;98.30
14473;DHT22;7322;50.872;4.386;2023-07-22T15:16:08;25.50;98.60
14473;DHT22;7322;50.872;4.386;2023-07-22T15:18:35;25.50;98.20
14473;DHT22;7322;50.872;4.386;2023-07-22T15:21:02;25.60;98.40
14473;DHT22;7322;50.872;4.386;2023-07-22T15:23:29;25.60;98.60
14473;DHT22;7322;50.872;4.386;2023-07-22T15:25:58;25.60;98.80
14473;DHT22;7322;50.872;4.386;2023-07-22T15:28:26;25.60;99.20
14473;DHT22;7322;50.872;4.386;2023-07-22T15:30:53;25.60;98.90
14473;DHT22;7322;50.872;4.386;2023-07-22T15:33:20;25.60;98.80
14473;DHT22;7322;50.872;4.386;2023-07-22T15:35:48;25.60;99.00
14473;DHT22;7322;50.872;4.386;2023-07-22T15:38:15;25.60;99.00
14473;DHT22;7322;50.872;4.386;2023-07-22T15:40:42;25.60;98.80
14473;DHT22;7322;50.872;4.386;2023-07-22T15:43:10;25.60;98.80
14473;DHT22;7322;50.872;4.386;2023-07-22T15:45:37;25.60;98.80
14473;DHT22;7322;50.872;4.386;2023-07-22T15:48:05;25.60;99.00
14473;DHT22;7322;50.872;4.386;2023-07-22T15:50:32;25.60;98.80